sensor_id;sensor_type;location;lat;lon;timestamp;P1;durP1;ratioP1;P2;durP2;ratioP2
2458;SDS011;1241;50.920;6.936;2023-05-16T00:02:21;7.32;;;5.50;;
2458;SDS011;1241;50.920;6.936;2023-05-16T00:04:46;9.25;;;6.15;;
2458;SDS011;1241;50.920;6.936;2023-05-16T00:07:12;6.80;;;6.10;;
2458;SDS011;1241;50.920;6.936;2023-05-16T00:09:38;7.85;;;6.68;;
2458;SDS011;1241;50.920;6.936;2023-05-16T00:12:07;8.05;;;6.50;;
2458;SDS011;1241;50.920;6.936;2023-05-16T00:14:33;9.85;;;6.65;;
2458;SDS011;1241;50.920;6.936;2023-05-16T00:17:00;9.25;;;7.75;;
2458;SDS011;1241;50.920;6.936;2023-05-16T00:19:28;9.45;;;7.32;;
2458;SDS011;1241;50.920;6.936;2023-05-16T00:21:54;10.70;;;7.93;;
2458;SDS011;1241;50.920;6.936;2023-05-16T00:24:20;8.85;;;7.95;;
2458;SDS011;1241;50.920;6.936;2023-05-16T00:26:46;9.50;;;7.80;;
2458;SDS011;1241;50.920;6.936;2023-05-16T00:29:13;9.02;;;8.15;;
2458;SDS011;1241;50.920;6.936;2023-05-16T00:31:42;8.23;;;7.33;;
2458;SDS011;1241;50.920;6.936;2023-05-16T00:34:07;8.25;;;7.45;;
2458;SDS011;1241;50.920;6.936;2023-05-16T00:36:33;8.63;;;7.57;;
2458;SDS011;1241;50.920;6.936;2023-05-16T00:39:00;11.65;;;10.23;;
2458;SDS011;1241;50.920;6.936;2023-05-16T00:41:26;10.60;;;7.97;;
2458;SDS011;1241;50.920;6.936;2023-05-16T00:43:51;9.50;;;8.50;;
2458;SDS011;1241;50.920;6.936;2023-05-16T00:46:18;8.63;;;7.40;;
2458;SDS011;1241;50.920;6.936;2023-05-16T00:48:43;7.90;;;7.20;;
2458;SDS011;1241;50.920;6.936;2023-05-16T00:51:09;8.55;;;7.68;;
2458;SDS011;1241;50.920;6.936;2023-05-16T00:53:35;9.50;;;8.50;;
2458;SDS011;1241;50.920;6.936;2023-05-16T00:56:01;8.75;;;7.90;;
2458;SDS011;1241;50.920;6.936;2023-05-16T00:58:29;11.45;;;10.35;;
2458;SDS011;1241;50.920;6.936;2023-05-16T01:00:56;12.70;;;11.45;;
2458;SDS011;1241;50.920;6.936;2023-05-16T01:03:23;15.32;;;12.90;;
2458;SDS011;1241;50.920;6.936;2023-05-16T01:05:49;16.02;;;14.38;;
2458;SDS011;1241;50.920;6.936;2023-05-16T01:08:17;17.47;;;14.60;;
2458;SDS011;1241;50.920;6.936;2023-05-16T01:10:56;16.80;;;15.10;;
2458;SDS011;1241;50.920;6.936;2023-05-16T01:16:33;15.30;;;13.57;;
2458;SDS011;1241;50.920;6.936;2023-05-16T01:24:39;14.57;;;12.82;;
2458;SDS011;1241;50.920;6.936;2023-05-16T01:27:13;17.08;;;13.80;;
2458;SDS011;1241;50.920;6.936;2023-05-16T01:29:40;12.97;;;11.57;;
2458;SDS011;1241;50.920;6.936;2023-05-16T01:32:05;11.93;;;10.73;;
2458;SDS011;1241;50.920;6.936;2023-05-16T01:34:31;11.57;;;10.38;;
2458;SDS011;1241;50.920;6.936;2023-05-16T01:39:46;11.57;;;9.80;;
2458;SDS011;1241;50.920;6.936;2023-05-16T01:42:17;14.48;;;12.70;;
2458;SDS011;1241;50.920;6.936;2023-05-16T01:45:01;15.02;;;13.25;;
2458;SDS011;1241;50.920;6.936;2023-05-16T01:47:35;17.10;;;15.23;;
2458;SDS011;1241;50.920;6.936;2023-05-16T01:50:15;19.53;;;17.10;;
2458;SDS011;1241;50.920;6.936;2023-05-16T01:55:51;20.65;;;17.30;;
2458;SDS011;1241;50.920;6.936;2023-05-16T01:58:21;23.80;;;19.02;;
2458;SDS011;1241;50.920;6.936;2023-05-16T02:00:53;23.58;;;18.08;;
2458;SDS011;1241;50.920;6.936;2023-05-16T02:03:24;19.48;;;17.05;;
2458;SDS011;1241;50.920;6.936;2023-05-16T02:05:49;20.33;;;17.13;;
2458;SDS011;1241;50.920;6.936;2023-05-16T02:08:16;19.25;;;16.80;;
2458;SDS011;1241;50.920;6.936;2023-05-16T02:10:42;19.98;;;16.88;;
2458;SDS011;1241;50.920;6.936;2023-05-16T02:13:07;19.87;;;16.27;;
2458;SDS011;1241;50.920;6.936;2023-05-16T02:15:33;19.27;;;14.90;;
2458;SDS011;1241;50.920;6.936;2023-05-16T02:17:59;15.77;;;13.63;;
2458;SDS011;1241;50.920;6.936;2023-05-16T02:20:25;17.92;;;13.93;;
2458;SDS011;1241;50.920;6.936;2023-05-16T02:22:50;16.23;;;13.20;;
2458;SDS011;1241;50.920;6.936;2023-05-16T02:25:16;13.70;;;12.07;;
2458;SDS011;1241;50.920;6.936;2023-05-16T02:27:42;13.10;;;11.80;;
2458;SDS011;1241;50.920;6.936;2023-05-16T02:30:09;15.32;;;13.05;;
2458;SDS011;1241;50.920;6.936;2023-05-16T02:32:37;15.20;;;11.48;;
2458;SDS011;1241;50.920;6.936;2023-05-16T02:35:03;14.65;;;10.50;;
2458;SDS011;1241;50.920;6.936;2023-05-16T02:37:29;12.27;;;9.63;;
2458;SDS011;1241;50.920;6.936;2023-05-16T02:39:55;12.50;;;9.55;;
2458;SDS011;1241;50.920;6.936;2023-05-16T02:42:21;13.90;;;10.40;;
2458;SDS011;1241;50.920;6.936;2023-05-16T02:44:46;12.67;;;9.40;;
2458;SDS011;1241;50.920;6.936;2023-05-16T02:47:12;11.13;;;7.57;;
2458;SDS011;1241;50.920;6.936;2023-05-16T02:49:38;13.13;;;8.50;;
2458;SDS011;1241;50.920;6.936;2023-05-16T02:52:05;10.50;;;7.15;;
2458;SDS011;1241;50.920;6.936;2023-05-16T02:54:31;12.70;;;7.95;;
2458;SDS011;1241;50.920;6.936;2023-05-16T02:56:57;10.77;;;7.60;;
2458;SDS011;1241;50.920;6.936;2023-05-16T02:59:23;12.10;;;8.60;;
2458;SDS011;1241;50.920;6.936;2023-05-16T03:01:49;11.83;;;8.67;;
2458;SDS011;1241;50.920;6.936;2023-05-16T03:04:15;16.73;;;8.80;;
2458;SDS011;1241;50.920;6.936;2023-05-16T03:06:41;18.20;;;10.70;;
2458;SDS011;1241;50.920;6.936;2023-05-16T03:09:06;20.53;;;11.33;;
2458;SDS011;1241;50.920;6.936;2023-05-16T03:11:32;20.88;;;12.63;;
2458;SDS011;1241;50.920;6.936;2023-05-16T03:13:59;19.10;;;12.95;;
2458;SDS011;1241;50.920;6.936;2023-05-16T03:16:25;19.80;;;14.80;;
2458;SDS011;1241;50.920;6.936;2023-05-16T03:18:50;16.48;;;14.30;;
2458;SDS011;1241;50.920;6.936;2023-05-16T03:21:16;21.30;;;15.02;;
2458;SDS011;1241;50.920;6.936;2023-05-16T03:23:43;22.48;;;14.43;;
2458;SDS011;1241;50.920;6.936;2023-05-16T03:26:09;22.00;;;14.77;;
2458;SDS011;1241;50.920;6.936;2023-05-16T03:28:35;21.25;;;14.30;;
2458;SDS011;1241;50.920;6.936;2023-05-16T03:31:01;22.23;;;14.73;;
2458;SDS011;1241;50.920;6.936;2023-05-16T03:33:27;21.90;;;16.47;;
2458;SDS011;1241;50.920;6.936;2023-05-16T03:35:53;26.08;;;16.75;;
2458;SDS011;1241;50.920;6.936;2023-05-16T03:38:18;24.17;;;16.95;;
2458;SDS011;1241;50.920;6.936;2023-05-16T03:40:44;21.38;;;14.98;;
2458;SDS011;1241;50.920;6.936;2023-05-16T03:43:10;21.02;;;15.82;;
2458;SDS011;1241;50.920;6.936;2023-05-16T03:45:36;31.20;;;17.40;;
2458;SDS011;1241;50.920;6.936;2023-05-16T03:48:01;25.25;;;16.50;;
2458;SDS011;1241;50.920;6.936;2023-05-16T03:50:27;25.42;;;16.40;;
2458;SDS011;1241;50.920;6.936;2023-05-16T03:52:53;23.63;;;16.35;;
2458;SDS011;1241;50.920;6.936;2023-05-16T03:55:19;24.73;;;16.40;;
2458;SDS011;1241;50.920;6.936;2023-05-16T03:57:45;23.10;;;16.63;;
2458;SDS011;1241;50.920;6.936;2023-05-16T04:00:12;20.38;;;16.13;;
2458;SDS011;1241;50.920;6.936;2023-05-16T04:02:38;20.23;;;14.45;;
2458;SDS011;1241;50.920;6.936;2023-05-16T04:05:07;21.20;;;15.63;;
2458;SDS011;1241;50.920;6.936;2023-05-16T04:07:34;20.13;;;13.37;;
2458;SDS011;1241;50.920;6.936;2023-05-16T04:10:00;21.17;;;14.10;;
2458;SDS011;1241;50.920;6.936;2023-05-16T04:12:27;16.85;;;12.30;;
2458;SDS011;1241;50.920;6.936;2023-05-16T04:14:52;18.73;;;12.90;;
2458;SDS011;1241;50.920;6.936;2023-05-16T04:17:21;18.77;;;12.32;;
2458;SDS011;1241;50.920;6.936;2023-05-16T04:19:47;18.05;;;13.40;;
2458;SDS011;1241;50.920;6.936;2023-05-16T04:22:12;21.33;;;13.27;;
2458;SDS011;1241;50.920;6.936;2023-05-16T04:24:38;17.77;;;12.37;;
2458;SDS011;1241;50.920;6.936;2023-05-16T04:27:04;24.93;;;14.83;;
2458;SDS011;1241;50.920;6.936;2023-05-16T04:29:34;20.02;;;13.85;;
2458;SDS011;1241;50.920;6.936;2023-05-16T04:32:00;25.67;;;14.05;;
2458;SDS011;1241;50.920;6.936;2023-05-16T04:34:26;19.35;;;12.13;;
2458;SDS011;1241;50.920;6.936;2023-05-16T04:36:52;19.45;;;11.60;;
2458;SDS011;1241;50.920;6.936;2023-05-16T04:39:19;20.88;;;11.98;;
2458;SDS011;1241;50.920;6.936;2023-05-16T04:41:45;17.25;;;10.98;;
2458;SDS011;1241;50.920;6.936;2023-05-16T04:44:10;15.27;;;10.10;;
2458;SDS011;1241;50.920;6.936;2023-05-16T04:46:36;18.58;;;10.18;;
2458;SDS011;1241;50.920;6.936;2023-05-16T04:49:02;18.70;;;9.53;;
2458;SDS011;1241;50.920;6.936;2023-05-16T04:51:28;17.17;;;9.88;;
2458;SDS011;1241;50.920;6.936;2023-05-16T04:53:53;13.93;;;8.48;;
2458;SDS011;1241;50.920;6.936;2023-05-16T04:56:20;15.38;;;7.95;;
2458;SDS011;1241;50.920;6.936;2023-05-16T04:58:46;12.45;;;8.20;;
2458;SDS011;1241;50.920;6.936;2023-05-16T05:01:12;18.13;;;8.35;;
2458;SDS011;1241;50.920;6.936;2023-05-16T05:03:37;14.77;;;6.43;;
2458;SDS011;1241;50.920;6.936;2023-05-16T05:06:03;11.07;;;5.23;;
2458;SDS011;1241;50.920;6.936;2023-05-16T05:08:29;10.77;;;5.38;;
2458;SDS011;1241;50.920;6.936;2023-05-16T05:10:55;10.85;;;5.28;;
2458;SDS011;1241;50.920;6.936;2023-05-16T05:13:20;11.37;;;4.70;;
2458;SDS011;1241;50.920;6.936;2023-05-16T05:15:46;12.27;;;4.57;;
2458;SDS011;1241;50.920;6.936;2023-05-16T05:18:14;14.52;;;5.13;;
2458;SDS011;1241;50.920;6.936;2023-05-16T05:20:40;10.60;;;4.70;;
2458;SDS011;1241;50.920;6.936;2023-05-16T05:23:06;8.98;;;4.00;;
2458;SDS011;1241;50.920;6.936;2023-05-16T05:25:32;12.93;;;5.83;;
2458;SDS011;1241;50.920;6.936;2023-05-16T05:28:00;8.00;;;5.03;;
2458;SDS011;1241;50.920;6.936;2023-05-16T05:30:25;11.32;;;4.35;;
2458;SDS011;1241;50.920;6.936;2023-05-16T05:32:51;8.40;;;4.20;;
2458;SDS011;1241;50.920;6.936;2023-05-16T05:35:18;9.82;;;4.10;;
2458;SDS011;1241;50.920;6.936;2023-05-16T05:37:45;9.45;;;4.18;;
2458;SDS011;1241;50.920;6.936;2023-05-16T05:40:11;10.15;;;4.82;;
2458;SDS011;1241;50.920;6.936;2023-05-16T05:42:37;10.50;;;4.20;;
2458;SDS011;1241;50.920;6.936;2023-05-16T05:45:03;9.20;;;4.45;;
2458;SDS011;1241;50.920;6.936;2023-05-16T05:47:29;10.70;;;5.00;;
2458;SDS011;1241;50.920;6.936;2023-05-16T05:49:55;8.03;;;4.30;;
2458;SDS011;1241;50.920;6.936;2023-05-16T05:52:21;10.13;;;3.92;;
2458;SDS011;1241;50.920;6.936;2023-05-16T05:54:47;9.30;;;3.50;;
2458;SDS011;1241;50.920;6.936;2023-05-16T05:57:12;7.13;;;3.63;;
2458;SDS011;1241;50.920;6.936;2023-05-16T05:59:38;12.87;;;7.27;;
2458;SDS011;1241;50.920;6.936;2023-05-16T06:02:04;11.60;;;5.32;;
2458;SDS011;1241;50.920;6.936;2023-05-16T06:04:30;13.95;;;4.20;;
2458;SDS011;1241;50.920;6.936;2023-05-16T06:06:56;10.40;;;4.15;;
2458;SDS011;1241;50.920;6.936;2023-05-16T06:09:22;14.18;;;5.75;;
2458;SDS011;1241;50.920;6.936;2023-05-16T06:11:48;9.53;;;4.50;;
2458;SDS011;1241;50.920;6.936;2023-05-16T06:14:14;10.77;;;5.20;;
2458;SDS011;1241;50.920;6.936;2023-05-16T06:16:40;12.75;;;7.50;;
2458;SDS011;1241;50.920;6.936;2023-05-16T06:19:06;10.80;;;4.60;;
2458;SDS011;1241;50.920;6.936;2023-05-16T06:21:32;14.00;;;5.85;;
2458;SDS011;1241;50.920;6.936;2023-05-16T06:23:58;12.13;;;4.60;;
2458;SDS011;1241;50.920;6.936;2023-05-16T06:26:23;6.85;;;3.50;;
2458;SDS011;1241;50.920;6.936;2023-05-16T06:28:49;10.57;;;3.50;;
2458;SDS011;1241;50.920;6.936;2023-05-16T06:31:15;8.07;;;3.60;;
2458;SDS011;1241;50.920;6.936;2023-05-16T06:33:40;7.37;;;3.60;;
2458;SDS011;1241;50.920;6.936;2023-05-16T06:36:06;10.85;;;4.22;;
2458;SDS011;1241;50.920;6.936;2023-05-16T06:38:32;10.75;;;4.38;;
2458;SDS011;1241;50.920;6.936;2023-05-16T06:40:58;9.35;;;4.10;;
2458;SDS011;1241;50.920;6.936;2023-05-16T06:43:23;8.45;;;3.30;;
2458;SDS011;1241;50.920;6.936;2023-05-16T06:45:49;7.50;;;4.30;;
2458;SDS011;1241;50.920;6.936;2023-05-16T06:48:16;9.27;;;3.80;;
2458;SDS011;1241;50.920;6.936;2023-05-16T06:50:45;9.25;;;4.07;;
2458;SDS011;1241;50.920;6.936;2023-05-16T06:53:12;10.70;;;3.35;;
2458;SDS011;1241;50.920;6.936;2023-05-16T06:55:38;9.68;;;3.15;;
2458;SDS011;1241;50.920;6.936;2023-05-16T06:58:04;8.55;;;3.50;;
2458;SDS011;1241;50.920;6.936;2023-05-16T07:00:29;7.72;;;2.90;;
2458;SDS011;1241;50.920;6.936;2023-05-16T07:02:55;7.20;;;2.88;;
2458;SDS011;1241;50.920;6.936;2023-05-16T07:05:21;6.67;;;2.60;;
2458;SDS011;1241;50.920;6.936;2023-05-16T07:07:46;8.20;;;3.27;;
2458;SDS011;1241;50.920;6.936;2023-05-16T07:10:13;6.47;;;3.20;;
2458;SDS011;1241;50.920;6.936;2023-05-16T07:12:43;9.20;;;3.00;;
2458;SDS011;1241;50.920;6.936;2023-05-16T07:15:09;8.20;;;2.90;;
2458;SDS011;1241;50.920;6.936;2023-05-16T07:17:35;6.57;;;2.90;;
2458;SDS011;1241;50.920;6.936;2023-05-16T07:20:00;7.50;;;3.58;;
2458;SDS011;1241;50.920;6.936;2023-05-16T07:22:27;7.57;;;2.90;;
2458;SDS011;1241;50.920;6.936;2023-05-16T07:24:52;8.25;;;2.90;;
2458;SDS011;1241;50.920;6.936;2023-05-16T07:27:21;8.65;;;2.67;;
2458;SDS011;1241;50.920;6.936;2023-05-16T07:29:47;7.10;;;3.20;;
2458;SDS011;1241;50.920;6.936;2023-05-16T07:32:12;6.47;;;2.70;;
2458;SDS011;1241;50.920;6.936;2023-05-16T07:34:38;6.00;;;3.30;;
2458;SDS011;1241;50.920;6.936;2023-05-16T07:37:04;6.20;;;3.10;;
2458;SDS011;1241;50.920;6.936;2023-05-16T07:39:31;4.80;;;2.30;;
2458;SDS011;1241;50.920;6.936;2023-05-16T07:41:57;4.70;;;2.35;;
2458;SDS011;1241;50.920;6.936;2023-05-16T07:44:23;7.20;;;2.60;;
2458;SDS011;1241;50.920;6.936;2023-05-16T07:46:49;7.70;;;2.55;;
2458;SDS011;1241;50.920;6.936;2023-05-16T07:49:14;8.05;;;3.10;;
2458;SDS011;1241;50.920;6.936;2023-05-16T07:51:40;8.13;;;3.00;;
2458;SDS011;1241;50.920;6.936;2023-05-16T07:54:06;6.37;;;2.47;;
2458;SDS011;1241;50.920;6.936;2023-05-16T07:56:32;5.67;;;2.40;;
2458;SDS011;1241;50.920;6.936;2023-05-16T07:58:58;5.93;;;3.03;;
2458;SDS011;1241;50.920;6.936;2023-05-16T08:01:24;8.88;;;4.10;;
2458;SDS011;1241;50.920;6.936;2023-05-16T08:03:50;10.57;;;6.57;;
2458;SDS011;1241;50.920;6.936;2023-05-16T08:06:17;11.40;;;5.90;;
2458;SDS011;1241;50.920;6.936;2023-05-16T08:08:43;11.47;;;6.70;;
2458;SDS011;1241;50.920;6.936;2023-05-16T08:11:08;10.17;;;5.67;;
2458;SDS011;1241;50.920;6.936;2023-05-16T08:13:35;9.70;;;5.60;;
2458;SDS011;1241;50.920;6.936;2023-05-16T08:16:01;11.00;;;5.70;;
2458;SDS011;1241;50.920;6.936;2023-05-16T08:18:26;9.75;;;5.40;;
2458;SDS011;1241;50.920;6.936;2023-05-16T08:20:52;9.37;;;5.33;;
2458;SDS011;1241;50.920;6.936;2023-05-16T08:23:18;6.35;;;4.78;;
2458;SDS011;1241;50.920;6.936;2023-05-16T08:25:44;6.10;;;3.92;;
2458;SDS011;1241;50.920;6.936;2023-05-16T08:28:09;9.48;;;5.10;;
2458;SDS011;1241;50.920;6.936;2023-05-16T08:30:35;7.50;;;4.43;;
2458;SDS011;1241;50.920;6.936;2023-05-16T08:33:01;10.63;;;5.30;;
2458;SDS011;1241;50.920;6.936;2023-05-16T08:35:29;6.95;;;5.10;;
2458;SDS011;1241;50.920;6.936;2023-05-16T08:37:55;9.27;;;5.30;;
2458;SDS011;1241;50.920;6.936;2023-05-16T08:40:23;7.32;;;5.50;;
2458;SDS011;1241;50.920;6.936;2023-05-16T08:42:50;7.70;;;5.40;;
2458;SDS011;1241;50.920;6.936;2023-05-16T08:45:16;8.00;;;5.50;;
2458;SDS011;1241;50.920;6.936;2023-05-16T08:47:41;9.57;;;5.30;;
2458;SDS011;1241;50.920;6.936;2023-05-16T08:50:09;8.13;;;4.70;;
2458;SDS011;1241;50.920;6.936;2023-05-16T08:52:36;8.32;;;4.72;;
2458;SDS011;1241;50.920;6.936;2023-05-16T08:55:04;9.15;;;5.30;;
2458;SDS011;1241;50.920;6.936;2023-05-16T08:57:33;9.13;;;4.10;;
2458;SDS011;1241;50.920;6.936;2023-05-16T09:00:00;5.70;;;3.90;;
2458;SDS011;1241;50.920;6.936;2023-05-16T09:02:28;5.43;;;3.53;;
2458;SDS011;1241;50.920;6.936;2023-05-16T09:04:54;5.70;;;3.58;;
2458;SDS011;1241;50.920;6.936;2023-05-16T09:07:22;7.93;;;3.73;;
2458;SDS011;1241;50.920;6.936;2023-05-16T09:09:47;6.63;;;3.20;;
2458;SDS011;1241;50.920;6.936;2023-05-16T09:12:13;6.30;;;3.30;;
2458;SDS011;1241;50.920;6.936;2023-05-16T09:14:39;5.57;;;3.03;;
2458;SDS011;1241;50.920;6.936;2023-05-16T09:17:06;4.57;;;2.90;;
2458;SDS011;1241;50.920;6.936;2023-05-16T09:19:36;8.05;;;3.60;;
2458;SDS011;1241;50.920;6.936;2023-05-16T09:22:03;4.82;;;3.20;;
2458;SDS011;1241;50.920;6.936;2023-05-16T09:24:29;6.00;;;3.40;;
2458;SDS011;1241;50.920;6.936;2023-05-16T09:26:55;4.70;;;3.30;;
2458;SDS011;1241;50.920;6.936;2023-05-16T09:29:21;6.80;;;3.63;;
2458;SDS011;1241;50.920;6.936;2023-05-16T09:31:48;6.30;;;3.40;;
2458;SDS011;1241;50.920;6.936;2023-05-16T09:34:14;8.40;;;3.20;;
2458;SDS011;1241;50.920;6.936;2023-05-16T09:36:39;6.83;;;3.30;;
2458;SDS011;1241;50.920;6.936;2023-05-16T09:39:05;5.30;;;2.90;;
2458;SDS011;1241;50.920;6.936;2023-05-16T09:41:32;8.67;;;3.80;;
2458;SDS011;1241;50.920;6.936;2023-05-16T09:44:02;5.80;;;3.53;;
2458;SDS011;1241;50.920;6.936;2023-05-16T09:46:31;6.35;;;2.95;;
2458;SDS011;1241;50.920;6.936;2023-05-16T09:48:58;5.57;;;3.90;;
2458;SDS011;1241;50.920;6.936;2023-05-16T09:51:24;6.25;;;3.70;;
2458;SDS011;1241;50.920;6.936;2023-05-16T09:53:51;6.65;;;3.40;;
2458;SDS011;1241;50.920;6.936;2023-05-16T09:56:17;7.20;;;4.00;;
2458;SDS011;1241;50.920;6.936;2023-05-16T09:58:43;6.25;;;3.95;;
2458;SDS011;1241;50.920;6.936;2023-05-16T10:01:10;7.63;;;3.10;;
2458;SDS011;1241;50.920;6.936;2023-05-16T10:03:37;5.27;;;2.90;;
2458;SDS011;1241;50.920;6.936;2023-05-16T10:06:04;5.32;;;3.50;;
2458;SDS011;1241;50.920;6.936;2023-05-16T10:08:31;5.63;;;2.95;;
2458;SDS011;1241;50.920;6.936;2023-05-16T10:11:01;3.85;;;2.80;;
2458;SDS011;1241;50.920;6.936;2023-05-16T10:13:34;4.07;;;3.00;;
2458;SDS011;1241;50.920;6.936;2023-05-16T10:16:01;10.65;;;5.88;;
2458;SDS011;1241;50.920;6.936;2023-05-16T10:18:36;6.32;;;2.50;;
2458;SDS011;1241;50.920;6.936;2023-05-16T10:21:04;4.50;;;2.60;;
2458;SDS011;1241;50.920;6.936;2023-05-16T10:23:40;5.40;;;2.85;;
2458;SDS011;1241;50.920;6.936;2023-05-16T10:26:06;5.95;;;3.00;;
2458;SDS011;1241;50.920;6.936;2023-05-16T10:28:33;3.60;;;2.50;;
2458;SDS011;1241;50.920;6.936;2023-05-16T10:31:00;5.67;;;2.60;;
2458;SDS011;1241;50.920;6.936;2023-05-16T10:33:27;3.50;;;2.63;;
2458;SDS011;1241;50.920;6.936;2023-05-16T10:35:52;4.43;;;2.60;;
2458;SDS011;1241;50.920;6.936;2023-05-16T10:38:20;4.78;;;2.80;;
2458;SDS011;1241;50.920;6.936;2023-05-16T10:40:47;4.70;;;2.25;;
2458;SDS011;1241;50.920;6.936;2023-05-16T10:43:28;6.95;;;2.70;;
2458;SDS011;1241;50.920;6.936;2023-05-16T10:46:05;4.30;;;2.80;;
2458;SDS011;1241;50.920;6.936;2023-05-16T10:48:34;4.93;;;3.70;;
2458;SDS011;1241;50.920;6.936;2023-05-16T10:51:02;5.20;;;2.63;;
2458;SDS011;1241;50.920;6.936;2023-05-16T10:54:02;4.28;;;2.50;;
2458;SDS011;1241;50.920;6.936;2023-05-16T10:56:36;6.43;;;3.20;;
2458;SDS011;1241;50.920;6.936;2023-05-16T10:59:02;5.20;;;2.70;;
2458;SDS011;1241;50.920;6.936;2023-05-16T11:01:34;4.90;;;2.77;;
2458;SDS011;1241;50.920;6.936;2023-05-16T11:04:00;4.70;;;2.60;;
2458;SDS011;1241;50.920;6.936;2023-05-16T11:06:50;6.22;;;2.90;;
2458;SDS011;1241;50.920;6.936;2023-05-16T11:09:24;3.42;;;2.50;;
2458;SDS011;1241;50.920;6.936;2023-05-16T11:14:20;3.33;;;2.40;;
2458;SDS011;1241;50.920;6.936;2023-05-16T11:19:27;4.93;;;2.80;;
2458;SDS011;1241;50.920;6.936;2023-05-16T11:22:04;7.57;;;3.28;;
2458;SDS011;1241;50.920;6.936;2023-05-16T11:24:33;5.25;;;2.80;;
2458;SDS011;1241;50.920;6.936;2023-05-16T11:27:01;3.95;;;3.13;;
2458;SDS011;1241;50.920;6.936;2023-05-16T11:29:31;4.75;;;3.05;;
2458;SDS011;1241;50.920;6.936;2023-05-16T11:31:58;5.97;;;3.35;;
2458;SDS011;1241;50.920;6.936;2023-05-16T11:34:25;5.55;;;3.60;;
2458;SDS011;1241;50.920;6.936;2023-05-16T11:36:51;8.55;;;3.20;;
2458;SDS011;1241;50.920;6.936;2023-05-16T11:39:17;5.18;;;3.10;;
2458;SDS011;1241;50.920;6.936;2023-05-16T11:41:46;3.33;;;2.67;;
2458;SDS011;1241;50.920;6.936;2023-05-16T11:44:12;6.20;;;3.13;;
2458;SDS011;1241;50.920;6.936;2023-05-16T11:46:38;3.92;;;2.47;;
2458;SDS011;1241;50.920;6.936;2023-05-16T11:49:09;4.57;;;3.20;;
2458;SDS011;1241;50.920;6.936;2023-05-16T11:51:37;6.50;;;3.35;;
2458;SDS011;1241;50.920;6.936;2023-05-16T11:54:03;6.10;;;3.00;;
2458;SDS011;1241;50.920;6.936;2023-05-16T11:56:30;3.70;;;2.58;;
2458;SDS011;1241;50.920;6.936;2023-05-16T11:58:56;6.90;;;3.35;;
2458;SDS011;1241;50.920;6.936;2023-05-16T12:01:35;5.25;;;2.50;;
2458;SDS011;1241;50.920;6.936;2023-05-16T12:04:11;3.13;;;2.20;;
2458;SDS011;1241;50.920;6.936;2023-05-16T12:06:38;5.50;;;2.60;;
2458;SDS011;1241;50.920;6.936;2023-05-16T12:09:05;3.92;;;2.50;;
2458;SDS011;1241;50.920;6.936;2023-05-16T12:11:41;5.10;;;2.50;;
2458;SDS011;1241;50.920;6.936;2023-05-16T12:14:08;7.20;;;2.87;;
2458;SDS011;1241;50.920;6.936;2023-05-16T12:16:36;4.68;;;2.83;;
2458;SDS011;1241;50.920;6.936;2023-05-16T12:19:04;5.30;;;3.20;;
2458;SDS011;1241;50.920;6.936;2023-05-16T12:21:30;6.88;;;2.88;;
2458;SDS011;1241;50.920;6.936;2023-05-16T12:23:57;5.57;;;2.40;;
2458;SDS011;1241;50.920;6.936;2023-05-16T12:26:30;6.55;;;2.00;;
2458;SDS011;1241;50.920;6.936;2023-05-16T12:29:00;3.92;;;1.70;;
2458;SDS011;1241;50.920;6.936;2023-05-16T12:31:29;3.00;;;1.85;;
2458;SDS011;1241;50.920;6.936;2023-05-16T12:33:56;2.23;;;1.20;;
2458;SDS011;1241;50.920;6.936;2023-05-16T12:36:23;7.00;;;1.90;;
2458;SDS011;1241;50.920;6.936;2023-05-16T12:38:50;3.25;;;1.63;;
2458;SDS011;1241;50.920;6.936;2023-05-16T12:41:18;4.18;;;1.40;;
2458;SDS011;1241;50.920;6.936;2023-05-16T12:43:45;3.10;;;1.90;;
2458;SDS011;1241;50.920;6.936;2023-05-16T12:46:11;3.40;;;1.60;;
2458;SDS011;1241;50.920;6.936;2023-05-16T12:48:37;4.32;;;1.80;;
2458;SDS011;1241;50.920;6.936;2023-05-16T12:51:10;3.50;;;1.67;;
2458;SDS011;1241;50.920;6.936;2023-05-16T12:56:10;3.13;;;1.70;;
2458;SDS011;1241;50.920;6.936;2023-05-16T12:58:37;4.45;;;1.85;;
2458;SDS011;1241;50.920;6.936;2023-05-16T13:01:03;2.63;;;1.70;;
2458;SDS011;1241;50.920;6.936;2023-05-16T13:03:30;2.63;;;1.50;;
2458;SDS011;1241;50.920;6.936;2023-05-16T13:05:56;3.38;;;1.60;;
2458;SDS011;1241;50.920;6.936;2023-05-16T13:08:22;2.78;;;1.60;;
2458;SDS011;1241;50.920;6.936;2023-05-16T13:10:48;3.00;;;2.00;;
2458;SDS011;1241;50.920;6.936;2023-05-16T13:13:15;3.92;;;1.80;;
2458;SDS011;1241;50.920;6.936;2023-05-16T13:15:43;3.50;;;1.70;;
2458;SDS011;1241;50.920;6.936;2023-05-16T13:18:09;4.13;;;2.00;;
2458;SDS011;1241;50.920;6.936;2023-05-16T13:20:35;3.72;;;1.65;;
2458;SDS011;1241;50.920;6.936;2023-05-16T13:23:00;4.53;;;1.65;;
2458;SDS011;1241;50.920;6.936;2023-05-16T13:25:26;4.15;;;1.90;;
2458;SDS011;1241;50.920;6.936;2023-05-16T13:27:52;3.13;;;2.37;;
2458;SDS011;1241;50.920;6.936;2023-05-16T13:30:18;3.67;;;1.67;;
2458;SDS011;1241;50.920;6.936;2023-05-16T13:32:43;3.63;;;1.80;;
2458;SDS011;1241;50.920;6.936;2023-05-16T13:35:09;3.23;;;1.87;;
2458;SDS011;1241;50.920;6.936;2023-05-16T13:37:35;3.93;;;1.43;;
2458;SDS011;1241;50.920;6.936;2023-05-16T13:40:01;2.15;;;1.40;;
2458;SDS011;1241;50.920;6.936;2023-05-16T13:42:28;2.83;;;1.50;;
2458;SDS011;1241;50.920;6.936;2023-05-16T13:44:54;3.90;;;1.50;;
2458;SDS011;1241;50.920;6.936;2023-05-16T13:47:20;2.87;;;1.70;;
2458;SDS011;1241;50.920;6.936;2023-05-16T13:49:46;2.13;;;1.40;;
2458;SDS011;1241;50.920;6.936;2023-05-16T13:52:12;1.52;;;1.23;;
2458;SDS011;1241;50.920;6.936;2023-05-16T13:54:38;2.30;;;1.55;;
2458;SDS011;1241;50.920;6.936;2023-05-16T13:57:05;2.33;;;1.70;;
2458;SDS011;1241;50.920;6.936;2023-05-16T13:59:31;2.38;;;1.70;;
2458;SDS011;1241;50.920;6.936;2023-05-16T14:01:57;3.00;;;1.70;;
2458;SDS011;1241;50.920;6.936;2023-05-16T14:04:23;2.93;;;1.50;;
2458;SDS011;1241;50.920;6.936;2023-05-16T14:06:50;3.20;;;1.60;;
2458;SDS011;1241;50.920;6.936;2023-05-16T14:09:15;2.80;;;1.52;;
2458;SDS011;1241;50.920;6.936;2023-05-16T14:11:41;4.07;;;1.80;;
2458;SDS011;1241;50.920;6.936;2023-05-16T14:14:07;2.28;;;1.70;;
2458;SDS011;1241;50.920;6.936;2023-05-16T14:16:33;3.40;;;2.30;;
2458;SDS011;1241;50.920;6.936;2023-05-16T14:18:58;4.18;;;2.10;;
2458;SDS011;1241;50.920;6.936;2023-05-16T14:21:24;4.05;;;1.88;;
2458;SDS011;1241;50.920;6.936;2023-05-16T14:23:50;3.88;;;1.58;;
2458;SDS011;1241;50.920;6.936;2023-05-16T14:26:16;3.88;;;1.60;;
2458;SDS011;1241;50.920;6.936;2023-05-16T14:28:46;2.17;;;1.52;;
2458;SDS011;1241;50.920;6.936;2023-05-16T14:31:12;2.00;;;1.50;;
2458;SDS011;1241;50.920;6.936;2023-05-16T14:33:38;2.70;;;1.50;;
2458;SDS011;1241;50.920;6.936;2023-05-16T14:36:05;3.60;;;1.70;;
2458;SDS011;1241;50.920;6.936;2023-05-16T14:38:32;2.67;;;1.90;;
2458;SDS011;1241;50.920;6.936;2023-05-16T14:40:57;3.17;;;1.90;;
2458;SDS011;1241;50.920;6.936;2023-05-16T14:43:23;2.03;;;1.83;;
2458;SDS011;1241;50.920;6.936;2023-05-16T14:45:49;3.70;;;2.30;;
2458;SDS011;1241;50.920;6.936;2023-05-16T14:48:14;5.03;;;1.70;;
2458;SDS011;1241;50.920;6.936;2023-05-16T14:50:41;2.88;;;1.70;;
2458;SDS011;1241;50.920;6.936;2023-05-16T14:53:07;3.75;;;1.60;;
2458;SDS011;1241;50.920;6.936;2023-05-16T14:55:33;3.88;;;2.22;;
2458;SDS011;1241;50.920;6.936;2023-05-16T14:57:58;3.23;;;1.80;;
2458;SDS011;1241;50.920;6.936;2023-05-16T15:00:24;3.92;;;1.88;;
2458;SDS011;1241;50.920;6.936;2023-05-16T15:02:50;4.43;;;1.98;;
2458;SDS011;1241;50.920;6.936;2023-05-16T15:05:16;3.10;;;1.83;;
2458;SDS011;1241;50.920;6.936;2023-05-16T15:07:42;3.00;;;1.80;;
2458;SDS011;1241;50.920;6.936;2023-05-16T15:10:08;3.00;;;1.85;;
2458;SDS011;1241;50.920;6.936;2023-05-16T15:12:35;3.20;;;1.90;;
2458;SDS011;1241;50.920;6.936;2023-05-16T15:15:01;2.00;;;1.80;;
2458;SDS011;1241;50.920;6.936;2023-05-16T15:17:28;4.23;;;1.90;;
2458;SDS011;1241;50.920;6.936;2023-05-16T15:19:53;4.55;;;2.20;;
2458;SDS011;1241;50.920;6.936;2023-05-16T15:22:19;4.40;;;2.22;;
2458;SDS011;1241;50.920;6.936;2023-05-16T15:24:45;4.38;;;2.13;;
2458;SDS011;1241;50.920;6.936;2023-05-16T15:27:11;2.67;;;2.20;;
2458;SDS011;1241;50.920;6.936;2023-05-16T15:29:36;3.75;;;2.30;;